UAE336 OMDB-RPLL
Flight info
| Callsign | UAE336 |
|---|---|
| Flight time | N/A |
| Altitude | 39000 |
| Route | IVURO1F IVURO M428 MUNGA A777 VAXIM L301 RASKI L639 BPL A791 CEA B465 CTG A599 LSO/N0484F410 A599 LINSO/K0896S1250 A599 POU B330 TAMOT/N0485F410 B330 BIGEX DCT POVAM DCT NOPER V642 NOMAN A461 AVMUP W16 TADEL TADEL7R |
| Aircraft | A359/H-SDE2E3GHIJ3J4J5LM1ORWXY/LB1D1 |
Departure
| Time | 2026-04-30 14:22 |
|---|---|
| Airport | Dubai International Airport (OMDB) |
Arrival
| Time | N/A |
|---|---|
| Airport | Ninoy Aquino International Airport (RPLL) |
| Time | Latitude | Longitude | Altitude | Speed | Heading |
|---|---|---|---|---|---|
| 2026-04-30 14:05 | 25.24958 | 55.36145 | 28 ft | 0 kts | 212° |
| 2026-04-30 14:14 | 25.24969 | 55.36153 | 27 ft | 2 kts | 213° |
| 2026-04-30 14:14 | 25.24983 | 55.36163 | 27 ft | 2 kts | 214° |
| 2026-04-30 14:14 | 25.24996 | 55.36174 | 27 ft | 2 kts | 217° |
| 2026-04-30 14:15 | 25.25009 | 55.36186 | 26 ft | 2 kts | 222° |
| 2026-04-30 14:15 | 25.25021 | 55.36199 | 27 ft | 2 kts | 233° |
| 2026-04-30 14:15 | 25.25029 | 55.36215 | 28 ft | 2 kts | 264° |
| 2026-04-30 14:15 | 25.25026 | 55.36231 | 28 ft | 1 kts | 298° |
| 2026-04-30 14:16 | 25.25025 | 55.36235 | 27 ft | 0 kts | 300° |
| 2026-04-30 14:17 | 25.25030 | 55.36226 | 27 ft | 4 kts | 304° |
| 2026-04-30 14:17 | 25.25076 | 55.36202 | 28 ft | 8 kts | 5° |
| 2026-04-30 14:18 | 25.25098 | 55.36269 | 28 ft | 13 kts | 108° |
| 2026-04-30 14:18 | 25.25041 | 55.36386 | 28 ft | 21 kts | 121° |
| 2026-04-30 14:18 | 25.24863 | 55.36764 | 28 ft | 33 kts | 103° |
| 2026-04-30 14:19 | 25.24778 | 55.37257 | 27 ft | 0 kts | 96° |
| 2026-04-30 14:19 | 25.24777 | 55.37264 | 28 ft | 4 kts | 98° |
| 2026-04-30 14:19 | 25.24761 | 55.37323 | 28 ft | 13 kts | 105° |
| 2026-04-30 14:20 | 25.24727 | 55.37446 | 28 ft | 21 kts | 115° |
| 2026-04-30 14:20 | 25.24636 | 55.37606 | 28 ft | 28 kts | 122° |
| 2026-04-30 14:20 | 25.24572 | 55.37868 | 28 ft | 15 kts | 43° |
| 2026-04-30 14:21 | 25.24677 | 55.37950 | 28 ft | 22 kts | 37° |
| 2026-04-30 14:21 | 25.24785 | 55.38023 | 28 ft | 2 kts | 1° |
| 2026-04-30 14:21 | 25.24896 | 55.37860 | 28 ft | 49 kts | 301° |
| 2026-04-30 14:22 | 25.25185 | 55.37339 | 28 ft | 108 kts | 302° |
| 2026-04-30 14:22 | 25.26282 | 55.35314 | 357 ft | 175 kts | 300° |
| 2026-04-30 14:22 | 25.26855 | 55.34207 | 1237 ft | 157 kts | 299° |
| 2026-04-30 14:23 | 25.27807 | 55.32360 | 2600 ft | 123 kts | 302° |
| 2026-04-30 14:23 | 25.28629 | 55.30657 | 3161 ft | 129 kts | 299° |
| 2026-04-30 14:24 | 25.29850 | 55.29297 | 3699 ft | 137 kts | 354° |
| 2026-04-30 14:24 | 25.30800 | 55.29340 | 4031 ft | 136 kts | 358° |
| 2026-04-30 14:25 | 25.32813 | 55.29483 | 4438 ft | 158 kts | 357° |
| 2026-04-30 14:25 | 25.35228 | 55.29579 | 4877 ft | 190 kts | 357° |
| 2026-04-30 14:26 | 25.38129 | 55.29663 | 5243 ft | 229 kts | 358° |
| 2026-04-30 14:26 | 25.39736 | 55.30028 | 5621 ft | 245 kts | 23° |